createdAt,value
2022-09-25T00:01:20.534Z,8.82
2022-09-25T00:03:49.063Z,8.84
2022-09-25T00:06:20.726Z,8.70
2022-09-25T00:08:49.123Z,8.73
2022-09-25T00:11:19.698Z,8.70
2022-09-25T00:13:49.616Z,8.67
2022-09-25T00:16:20.327Z,8.60
2022-09-25T00:19:10.217Z,8.62
2022-09-25T00:21:39.222Z,8.63
2022-09-25T00:24:09.693Z,8.62
2022-09-25T00:26:44.130Z,8.58
2022-09-25T00:29:17.407Z,8.50
2022-09-25T00:31:45.528Z,8.55
2022-09-25T00:34:13.418Z,8.26
2022-09-25T00:36:41.699Z,8.45
2022-09-25T00:39:09.650Z,8.53
2022-09-25T00:41:40.372Z,8.51
2022-09-25T00:44:41.727Z,8.45
2022-09-25T00:47:16.839Z,8.47
2022-09-25T00:49:45.719Z,8.52
2022-09-25T00:52:14.541Z,8.51
2022-09-25T00:54:46.840Z,8.53
2022-09-25T00:57:19.341Z,8.52
2022-09-25T00:59:53.953Z,8.61
2022-09-25T01:02:28.397Z,8.61
2022-09-25T01:04:59.162Z,8.61
2022-09-25T01:07:27.408Z,8.60
2022-09-25T01:10:02.920Z,8.59
2022-09-25T01:12:31.072Z,8.62
2022-09-25T01:14:59.004Z,8.61
2022-09-25T01:17:35.004Z,8.48
2022-09-25T01:20:15.926Z,8.57
2022-09-25T01:22:58.828Z,8.59
2022-09-25T01:25:36.887Z,8.58
2022-09-25T01:28:19.543Z,8.57
2022-09-25T01:30:54.098Z,8.61
2022-09-25T01:33:31.901Z,8.66
2022-09-25T01:36:06.770Z,8.77
2022-09-25T01:38:39.466Z,8.67
2022-09-25T01:41:11.900Z,8.80
2022-09-25T01:43:44.362Z,8.73
2022-09-25T01:46:18.294Z,8.79
2022-09-25T01:48:49.904Z,8.79
2022-09-25T01:51:22.693Z,8.77
2022-09-25T01:53:55.119Z,8.74
2022-09-25T01:56:33.378Z,8.76
2022-09-25T01:59:07.053Z,8.73
2022-09-25T02:01:41.462Z,8.73
2022-09-25T02:04:15.309Z,8.49
2022-09-25T02:06:47.302Z,8.57
2022-09-25T02:09:19.047Z,8.62
2022-09-25T02:11:52.438Z,8.73
2022-09-25T02:14:23.520Z,8.75
2022-09-25T02:16:59.903Z,8.75
2022-09-25T02:19:45.848Z,8.77
2022-09-25T02:22:20.070Z,8.73
2022-09-25T02:24:58.446Z,8.75
2022-09-25T02:27:29.778Z,8.81
2022-09-25T02:29:59.362Z,8.83
2022-09-25T02:32:32.472Z,8.83
2022-09-25T02:35:01.196Z,8.84
2022-09-25T02:37:30.911Z,8.81
2022-09-25T02:40:02.228Z,8.82
2022-09-25T02:42:39.797Z,8.81
2022-09-25T02:45:29.912Z,8.79
2022-09-25T02:48:08.484Z,8.76
2022-09-25T02:50:43.368Z,8.69
2022-09-25T02:53:18.588Z,8.71
2022-09-25T02:55:52.898Z,8.60
2022-09-25T02:58:28.503Z,8.55
2022-09-25T03:00:58.546Z,8.54
2022-09-25T03:03:29.477Z,8.26
2022-09-25T03:05:58.690Z,8.45
2022-09-25T03:08:42.078Z,8.41
2022-09-25T03:11:12.503Z,8.28
2022-09-25T03:13:41.835Z,8.30
2022-09-25T03:16:15.900Z,8.17
2022-09-25T03:18:46.424Z,8.23
2022-09-25T03:21:14.530Z,8.15
2022-09-25T03:23:42.535Z,8.08
2022-09-25T03:26:10.755Z,8.06
2022-09-25T03:28:38.790Z,7.93
2022-09-25T03:31:08.783Z,8.06
2022-09-25T03:33:38.419Z,8.03
2022-09-25T03:36:11.931Z,7.94
2022-09-25T03:38:41.366Z,7.89
2022-09-25T03:41:12.981Z,7.92
2022-09-25T03:43:43.708Z,7.87
2022-09-25T03:46:14.348Z,7.83
2022-09-25T03:48:43.247Z,7.80
2022-09-25T03:51:12.797Z,7.80
2022-09-25T03:53:41.438Z,7.68
2022-09-25T03:56:13.032Z,7.72
2022-09-25T03:58:41.532Z,7.69
2022-09-25T04:01:11.097Z,7.67
2022-09-25T04:03:40.215Z,7.64
2022-09-25T04:06:10.080Z,7.70
2022-09-25T04:08:39.492Z,7.72
2022-09-25T04:11:07.666Z,7.72
2022-09-25T04:13:37.497Z,7.64
2022-09-25T04:16:08.245Z,7.72
2022-09-25T04:18:36.926Z,7.70
2022-09-25T04:21:07.911Z,7.78
2022-09-25T04:23:36.737Z,7.79
2022-09-25T04:26:06.494Z,7.65
2022-09-25T04:28:34.646Z,7.82
2022-09-25T04:31:03.877Z,7.79
2022-09-25T04:33:49.215Z,7.81
2022-09-25T04:36:18.961Z,7.87
2022-09-25T04:38:48.021Z,7.68
2022-09-25T04:41:31.266Z,7.87
2022-09-25T04:43:59.551Z,7.91
2022-09-25T04:46:27.648Z,7.91
2022-09-25T04:48:55.578Z,7.83
2022-09-25T04:51:23.954Z,7.89
2022-09-25T04:53:52.076Z,7.84
2022-09-25T04:56:21.593Z,7.70
2022-09-25T04:58:51.073Z,7.81
2022-09-25T05:01:21.765Z,7.85
2022-09-25T05:03:53.732Z,7.86
2022-09-25T05:06:23.040Z,7.84
2022-09-25T05:08:51.931Z,7.87
2022-09-25T05:11:21.591Z,7.73
2022-09-25T05:13:51.456Z,7.88
2022-09-25T05:16:20.080Z,7.90
2022-09-25T05:18:48.201Z,7.82
2022-09-25T05:21:16.059Z,7.97
2022-09-25T05:23:43.989Z,8.06
2022-09-25T05:26:12.047Z,8.08
2022-09-25T05:28:43.259Z,8.10
2022-09-25T05:31:11.259Z,8.15
2022-09-25T05:33:39.290Z,8.21
2022-09-25T05:36:09.129Z,8.18
2022-09-25T05:38:39.094Z,8.15
2022-09-25T05:41:08.815Z,8.32
2022-09-25T05:43:42.852Z,8.19
2022-09-25T05:46:12.172Z,8.43
2022-09-25T05:48:40.967Z,8.35
2022-09-25T05:51:09.470Z,8.53
2022-09-25T05:53:38.354Z,8.54
2022-09-25T05:56:06.999Z,8.67
2022-09-25T05:58:35.930Z,8.72
2022-09-25T06:01:07.256Z,8.77
2022-09-25T06:03:37.474Z,8.84
2022-09-25T06:06:05.753Z,8.83
2022-09-25T06:08:35.113Z,8.97
2022-09-25T06:11:03.600Z,8.86
2022-09-25T06:13:34.869Z,9.10
2022-09-25T06:16:03.650Z,9.13
2022-09-25T06:18:33.955Z,9.17
2022-09-25T06:21:03.720Z,9.24
2022-09-25T06:23:32.024Z,9.09
2022-09-25T06:26:03.573Z,9.13
2022-09-25T06:28:33.459Z,9.47
2022-09-25T06:31:02.280Z,9.42
2022-09-25T06:33:30.948Z,9.52
2022-09-25T06:36:00.826Z,9.68
2022-09-25T06:38:31.561Z,9.70
2022-09-25T06:41:00.880Z,9.81
2022-09-25T06:43:29.422Z,9.92
2022-09-25T06:46:02.622Z,10.07
2022-09-25T06:48:31.390Z,10.07
2022-09-25T06:51:02.006Z,10.39
2022-09-25T06:53:31.326Z,10.61
2022-09-25T06:56:00.915Z,10.57
2022-09-25T06:58:30.634Z,10.82
2022-09-25T07:00:59.196Z,10.94
2022-09-25T07:03:44.470Z,11.13
2022-09-25T07:06:16.227Z,11.26
2022-09-25T07:08:44.786Z,11.33
2022-09-25T07:11:15.422Z,11.48
2022-09-25T07:13:43.950Z,11.55
2022-09-25T07:16:17.567Z,11.70
2022-09-25T07:18:46.731Z,11.82
2022-09-25T07:21:17.780Z,11.89
2022-09-25T07:23:48.788Z,12.04
2022-09-25T07:26:22.546Z,12.01
2022-09-25T07:28:55.996Z,12.13
2022-09-25T07:31:26.043Z,12.14
2022-09-25T07:33:54.476Z,12.26
2022-09-25T07:36:24.683Z,12.40
2022-09-25T07:38:55.762Z,12.46
2022-09-25T07:41:27.732Z,12.56
2022-09-25T07:46:46.125Z,12.75
2022-09-25T07:49:18.131Z,12.79
2022-09-25T07:51:47.546Z,12.88
2022-09-25T07:54:15.559Z,13.10
2022-09-25T07:56:43.775Z,13.07
2022-09-25T07:59:14.652Z,13.39
2022-09-25T08:01:44.957Z,13.51
2022-09-25T08:04:14.616Z,13.65
2022-09-25T08:06:42.510Z,13.76
2022-09-25T08:09:13.164Z,13.99
2022-09-25T08:11:42.382Z,14.27
2022-09-25T08:14:10.437Z,14.45
2022-09-25T08:16:38.444Z,14.48
2022-09-25T08:19:06.443Z,14.68
2022-09-25T08:21:36.753Z,14.69
2022-09-25T08:24:05.714Z,14.90
2022-09-25T08:26:36.887Z,15.23
2022-09-25T08:29:09.370Z,15.46
2022-09-25T08:31:37.477Z,15.76
2022-09-25T08:34:28.183Z,15.73
2022-09-25T08:36:53.493Z,16.15
2022-09-25T08:39:21.433Z,16.24
2022-09-25T08:41:55.202Z,16.44
2022-09-25T08:44:29.748Z,16.60
2022-09-25T08:47:19.839Z,16.58
2022-09-25T08:50:02.234Z,16.56
2022-09-25T08:52:31.743Z,16.58
2022-09-25T08:54:59.885Z,16.73
2022-09-25T08:57:35.640Z,16.74
2022-09-25T09:00:09.092Z,17.05
2022-09-25T09:02:45.428Z,17.17
2022-09-25T09:05:20.675Z,16.82
2022-09-25T09:07:55.276Z,16.94
2022-09-25T09:10:31.533Z,17.14
2022-09-25T09:13:07.289Z,17.33
2022-09-25T09:15:41.894Z,17.40
2022-09-25T09:18:20.114Z,17.92
2022-09-25T09:20:53.367Z,18.31
2022-09-25T09:23:23.530Z,18.62
2022-09-25T09:26:01.409Z,19.45
2022-09-25T09:29:02.983Z,20.29
2022-09-25T09:31:41.825Z,20.96
2022-09-25T09:35:01.057Z,21.41
2022-09-25T09:37:40.117Z,21.93
2022-09-25T09:40:26.131Z,21.76
2022-09-25T09:43:11.081Z,22.22
2022-09-25T09:45:47.494Z,22.34
2022-09-25T09:48:21.254Z,22.77
2022-09-25T09:50:53.245Z,23.90
2022-09-25T09:53:35.503Z,24.01
2022-09-25T09:56:09.284Z,24.64
2022-09-25T09:58:46.046Z,25.36
2022-09-25T10:01:39.649Z,26.08
2022-09-25T10:04:10.666Z,25.86
2022-09-25T10:06:43.464Z,26.05
2022-09-25T10:09:16.817Z,26.23
2022-09-25T10:11:53.223Z,25.52
2022-09-25T10:14:27.026Z,24.40
2022-09-25T10:16:58.535Z,23.05
2022-09-25T10:19:32.535Z,22.04
2022-09-25T10:22:16.443Z,21.24
2022-09-25T10:24:51.857Z,20.90
2022-09-25T10:27:29.733Z,20.67
2022-09-25T10:30:14.465Z,20.50
2022-09-25T10:32:57.814Z,20.30
2022-09-25T10:35:30.974Z,20.13
2022-09-25T10:38:02.003Z,19.92
2022-09-25T10:40:33.488Z,19.85
2022-09-25T10:43:17.782Z,19.80
2022-09-25T10:45:46.224Z,20.26
2022-09-25T10:48:49.947Z,20.36
2022-09-25T10:51:20.005Z,20.22
2022-09-25T10:53:49.459Z,20.23
2022-09-25T10:56:21.664Z,20.42
2022-09-25T10:58:58.132Z,21.00
2022-09-25T11:01:36.423Z,21.94
2022-09-25T11:04:13.688Z,22.73
2022-09-25T11:06:46.258Z,23.35
2022-09-25T11:09:19.755Z,23.28
2022-09-25T11:11:49.643Z,22.95
2022-09-25T11:14:25.097Z,23.35
2022-09-25T11:16:57.818Z,23.00
2022-09-25T11:19:29.956Z,23.04
2022-09-25T11:22:08.208Z,23.43
2022-09-25T11:24:51.391Z,24.33
2022-09-25T11:27:26.272Z,24.67
2022-09-25T11:30:04.225Z,25.71
2022-09-25T11:32:42.734Z,26.90
2022-09-25T11:35:29.894Z,27.06
2022-09-25T11:38:06.308Z,27.83
2022-09-25T11:41:18.048Z,28.07
2022-09-25T11:44:02.984Z,27.45
2022-09-25T11:46:40.508Z,27.88
2022-09-25T11:49:18.381Z,28.14
2022-09-25T11:52:20.229Z,28.05
2022-09-25T11:55:16.104Z,28.40
2022-09-25T11:57:56.515Z,29.23
2022-09-25T12:00:28.575Z,29.23
2022-09-25T12:03:27.478Z,28.97
2022-09-25T12:06:32.420Z,28.05
2022-09-25T12:09:19.953Z,26.38
2022-09-25T12:11:57.541Z,25.87
2022-09-25T12:14:33.640Z,24.88
2022-09-25T12:17:10.262Z,24.49
2022-09-25T12:19:46.042Z,23.99
2022-09-25T12:22:21.576Z,24.66
2022-09-25T12:25:00.938Z,24.38
2022-09-25T12:27:42.131Z,24.10
2022-09-25T12:30:18.584Z,23.61
2022-09-25T12:33:04.150Z,23.73
2022-09-25T12:35:41.981Z,23.72
2022-09-25T12:38:19.994Z,24.28
2022-09-25T12:40:55.660Z,24.75
2022-09-25T12:43:45.074Z,25.19
2022-09-25T12:46:24.105Z,25.86
2022-09-25T12:48:57.802Z,25.68
2022-09-25T12:51:34.117Z,24.57
2022-09-25T12:54:07.590Z,23.61
2022-09-25T12:56:43.846Z,24.04
2022-09-25T12:59:16.817Z,23.17
2022-09-25T13:01:54.073Z,22.18
2022-09-25T13:04:36.276Z,21.41
2022-09-25T13:07:11.083Z,20.64
2022-09-25T13:09:44.901Z,19.98
2022-09-25T13:12:27.510Z,19.43
2022-09-25T13:14:59.999Z,19.40
2022-09-25T13:17:28.520Z,19.16
2022-09-25T13:20:37.225Z,18.94
2022-09-25T13:23:10.292Z,18.88
2022-09-25T13:25:43.185Z,18.92
2022-09-25T13:28:30.219Z,18.83
2022-09-25T13:31:08.062Z,19.39
2022-09-25T13:33:43.484Z,20.47
2022-09-25T13:36:23.292Z,20.85
2022-09-25T13:39:11.994Z,21.97
2022-09-25T13:41:50.542Z,24.19
2022-09-25T13:44:59.013Z,24.80
2022-09-25T13:48:04.475Z,26.83
2022-09-25T13:50:43.592Z,27.62
2022-09-25T13:53:21.634Z,27.86
2022-09-25T13:56:24.108Z,29.10
2022-09-25T13:59:24.963Z,30.21
2022-09-25T14:01:59.710Z,31.62
2022-09-25T14:04:33.849Z,31.53
2022-09-25T14:07:13.023Z,31.45
2022-09-25T14:09:45.788Z,30.37
2022-09-25T14:12:24.865Z,28.55
2022-09-25T14:14:57.788Z,26.40
2022-09-25T14:17:30.220Z,25.68
2022-09-25T14:20:02.075Z,25.19
2022-09-25T14:22:34.952Z,23.78
2022-09-25T14:25:03.352Z,22.19
2022-09-25T14:27:31.180Z,20.89
2022-09-25T14:30:08.612Z,20.23
2022-09-25T14:32:55.474Z,19.75
2022-09-25T14:35:36.704Z,18.85
2022-09-25T14:38:20.327Z,18.68
2022-09-25T14:41:05.219Z,19.07
2022-09-25T14:43:52.765Z,21.35
2022-09-25T14:46:23.163Z,23.43
2022-09-25T14:48:54.752Z,25.56
2022-09-25T14:51:27.717Z,27.13
2022-09-25T14:53:59.612Z,27.03
2022-09-25T14:56:34.456Z,25.65
2022-09-25T14:59:10.260Z,24.04
2022-09-25T15:01:47.133Z,22.42
2022-09-25T15:04:26.932Z,21.34
2022-09-25T15:07:16.965Z,20.30
2022-09-25T15:09:48.479Z,19.22
2022-09-25T15:12:21.387Z,18.68
2022-09-25T15:15:03.679Z,18.40
2022-09-25T15:17:32.331Z,18.02
2022-09-25T15:20:04.166Z,17.50
2022-09-25T15:22:38.450Z,17.33
2022-09-25T15:25:16.018Z,17.27
2022-09-25T15:27:44.176Z,16.78
2022-09-25T15:30:17.150Z,16.55
2022-09-25T15:32:50.652Z,16.44
2022-09-25T15:35:27.329Z,16.27
2022-09-25T15:38:09.210Z,16.14
2022-09-25T15:40:37.746Z,15.94
2022-09-25T15:43:13.290Z,15.81
2022-09-25T15:45:45.742Z,15.76
2022-09-25T15:48:25.055Z,15.54
2022-09-25T15:50:54.484Z,15.44
2022-09-25T15:53:28.949Z,15.26
2022-09-25T15:56:18.822Z,15.27
2022-09-25T15:58:50.200Z,14.84
2022-09-25T16:01:44.482Z,14.91
2022-09-25T16:04:54.828Z,14.81
2022-09-25T16:07:29.528Z,14.68
2022-09-25T16:10:00.536Z,14.30
2022-09-25T16:12:32.026Z,14.36
2022-09-25T16:15:41.252Z,14.18
2022-09-25T16:18:26.902Z,13.91
2022-09-25T16:21:01.672Z,13.83
2022-09-25T16:23:31.539Z,13.82
2022-09-25T16:26:02.015Z,13.67
2022-09-25T16:28:33.017Z,13.53
2022-09-25T16:31:02.992Z,13.23
2022-09-25T16:33:33.723Z,13.17
2022-09-25T16:36:14.492Z,12.85
2022-09-25T16:39:05.512Z,12.55
2022-09-25T16:41:37.288Z,12.38
2022-09-25T16:44:14.547Z,12.04
2022-09-25T16:46:43.452Z,11.78
2022-09-25T16:49:12.810Z,11.74
2022-09-25T16:51:46.134Z,11.53
2022-09-25T16:54:16.520Z,11.49
2022-09-25T16:56:48.351Z,11.08
2022-09-25T16:59:18.597Z,11.05
2022-09-25T17:01:48.060Z,11.01
2022-09-25T17:04:18.287Z,11.02
2022-09-25T17:06:47.476Z,11.02
2022-09-25T17:09:17.117Z,10.92
2022-09-25T17:11:54.330Z,10.81
2022-09-25T17:14:24.339Z,10.60
2022-09-25T17:16:53.063Z,10.55
2022-09-25T17:19:22.115Z,10.43
2022-09-25T17:21:52.165Z,10.12
2022-09-25T17:24:23.334Z,10.23
2022-09-25T17:26:52.851Z,10.07
2022-09-25T17:29:21.486Z,10.01
2022-09-25T17:31:49.639Z,9.90
2022-09-25T17:34:18.841Z,9.75
2022-09-25T17:36:46.661Z,9.67
2022-09-25T17:39:14.763Z,9.54
2022-09-25T17:41:43.265Z,9.44
2022-09-25T17:44:17.220Z,9.39
2022-09-25T17:46:45.321Z,9.32
2022-09-25T17:49:13.546Z,9.25
2022-09-25T17:51:41.973Z,9.16
2022-09-25T17:54:11.918Z,9.07
2022-09-25T17:56:40.417Z,8.96
2022-09-25T17:59:09.128Z,8.88
2022-09-25T18:01:39.917Z,8.70
2022-09-25T18:04:20.300Z,8.67
2022-09-25T18:06:48.638Z,8.64
2022-09-25T18:09:16.704Z,8.66
2022-09-25T18:11:45.105Z,8.62
2022-09-25T18:14:14.041Z,8.51
2022-09-25T18:16:45.734Z,8.55
2022-09-25T18:19:36.050Z,8.43
2022-09-25T18:22:21.924Z,8.53
2022-09-25T18:24:53.079Z,8.36
2022-09-25T18:27:21.678Z,8.44
2022-09-25T18:29:49.571Z,8.40
2022-09-25T18:32:18.901Z,8.44
2022-09-25T18:34:46.743Z,8.47
2022-09-25T18:37:14.962Z,8.37
2022-09-25T18:39:43.583Z,8.45
2022-09-25T18:42:11.505Z,8.34
2022-09-25T18:44:42.695Z,8.34
2022-09-25T18:47:11.659Z,8.08
2022-09-25T18:49:41.177Z,8.25
2022-09-25T18:52:09.107Z,8.21
2022-09-25T18:54:36.975Z,8.14
2022-09-25T18:57:05.103Z,8.18
2022-09-25T18:59:33.055Z,8.15
2022-09-25T19:02:01.366Z,8.18
2022-09-25T19:04:29.437Z,8.08
2022-09-25T19:06:58.815Z,8.14
2022-09-25T19:09:27.805Z,7.97
2022-09-25T19:11:56.280Z,8.07
2022-09-25T19:14:25.007Z,8.11
2022-09-25T19:16:56.599Z,8.07
2022-09-25T19:19:24.430Z,8.04
2022-09-25T19:21:52.285Z,7.88
2022-09-25T19:24:21.996Z,7.96
2022-09-25T19:26:50.473Z,7.92
2022-09-25T19:29:18.354Z,7.87
2022-09-25T19:31:46.362Z,7.83
2022-09-25T19:34:14.397Z,7.78
2022-09-25T19:36:42.408Z,7.80
2022-09-25T19:39:10.559Z,7.71
2022-09-25T19:41:41.093Z,7.65
2022-09-25T19:44:13.210Z,7.73
2022-09-25T19:46:42.230Z,7.65
2022-09-25T19:49:10.497Z,7.64
2022-09-25T19:51:40.405Z,7.65
2022-09-25T19:54:11.659Z,7.57
2022-09-25T19:56:46.252Z,7.42
2022-09-25T19:59:16.111Z,7.38
2022-09-25T20:01:45.234Z,7.19
2022-09-25T20:04:18.317Z,7.34
2022-09-25T20:06:47.543Z,7.28
2022-09-25T20:09:15.860Z,7.20
2022-09-25T20:11:50.267Z,7.51
2022-09-25T20:14:20.529Z,7.45
2022-09-25T20:16:48.612Z,7.34
2022-09-25T20:19:19.315Z,7.39
2022-09-25T20:21:47.540Z,7.25
2022-09-25T20:24:15.788Z,7.35
2022-09-25T20:26:44.986Z,7.29
2022-09-25T20:29:15.151Z,7.29
2022-09-25T20:31:44.693Z,7.25
2022-09-25T20:34:14.229Z,7.21
2022-09-25T20:36:42.257Z,7.15
2022-09-25T20:39:10.743Z,7.23
2022-09-25T20:41:39.026Z,7.20
2022-09-25T20:44:08.887Z,7.21
2022-09-25T20:46:37.062Z,7.12
2022-09-25T20:49:05.147Z,7.10
2022-09-25T20:51:35.300Z,7.18
2022-09-25T20:54:05.283Z,7.13
2022-09-25T20:56:34.481Z,7.10
2022-09-25T20:59:02.964Z,7.06
2022-09-25T21:01:36.814Z,7.07
2022-09-25T21:04:08.046Z,7.12
2022-09-25T21:06:41.890Z,7.15
2022-09-25T21:09:14.191Z,6.96
2022-09-25T21:11:43.799Z,7.12
2022-09-25T21:14:16.541Z,7.08
2022-09-25T21:16:46.383Z,7.16
2022-09-25T21:19:16.395Z,7.19
2022-09-25T21:21:44.657Z,7.18
2022-09-25T21:24:15.579Z,6.89
2022-09-25T21:26:43.687Z,7.18
2022-09-25T21:29:13.451Z,7.19
2022-09-25T21:31:49.017Z,7.08
2022-09-25T21:34:19.565Z,7.26
2022-09-25T21:36:48.131Z,7.28
2022-09-25T21:39:16.402Z,7.38
2022-09-25T21:41:44.953Z,7.42
2022-09-25T21:44:17.985Z,7.39
2022-09-25T21:46:46.089Z,7.42
2022-09-25T21:49:20.435Z,7.37
2022-09-25T21:51:49.554Z,7.37
2022-09-25T21:54:17.905Z,7.37
2022-09-25T21:56:45.962Z,7.35
2022-09-25T21:59:14.357Z,7.35
2022-09-25T22:01:43.146Z,7.41
2022-09-25T22:04:14.411Z,7.51
2022-09-25T22:06:45.676Z,7.40
2022-09-25T22:09:16.826Z,7.62
2022-09-25T22:11:47.991Z,7.65
2022-09-25T22:14:16.845Z,7.66
2022-09-25T22:16:49.190Z,7.66
2022-09-25T22:19:22.095Z,7.84
2022-09-25T22:21:52.728Z,7.91
2022-09-25T22:24:20.914Z,7.77
2022-09-25T22:26:51.593Z,7.98
2022-09-25T22:29:31.678Z,7.95
2022-09-25T22:31:59.784Z,7.85
2022-09-25T22:34:29.762Z,7.96
2022-09-25T22:37:02.063Z,7.98
2022-09-25T22:39:30.774Z,7.97
2022-09-25T22:41:59.099Z,7.85
2022-09-25T22:44:30.191Z,7.92
2022-09-25T22:47:02.408Z,7.91
2022-09-25T22:49:32.050Z,7.86
2022-09-25T22:52:01.632Z,7.88
2022-09-25T22:54:29.526Z,7.75
2022-09-25T22:56:57.604Z,8.00
2022-09-25T22:59:28.377Z,8.04
2022-09-25T23:01:56.942Z,8.09
2022-09-25T23:04:29.772Z,8.12
2022-09-25T23:06:57.992Z,8.24
2022-09-25T23:09:27.319Z,8.37
2022-09-25T23:11:56.615Z,8.59
2022-09-25T23:14:26.998Z,8.96
2022-09-25T23:16:55.520Z,9.16
2022-09-25T23:19:24.429Z,9.15
2022-09-25T23:21:53.646Z,9.27
2022-09-25T23:24:22.559Z,9.34
2022-09-25T23:26:52.124Z,9.37
2022-09-25T23:29:21.832Z,9.39
2022-09-25T23:31:50.522Z,9.39
2022-09-25T23:34:19.940Z,9.33
2022-09-25T23:36:48.049Z,9.51
2022-09-25T23:39:18.098Z,9.56
2022-09-25T23:41:46.473Z,9.57
2022-09-25T23:44:16.181Z,9.60
2022-09-25T23:46:45.022Z,9.67
2022-09-25T23:49:13.113Z,9.70
2022-09-25T23:51:43.173Z,9.72
2022-09-25T23:54:12.188Z,9.85
2022-09-25T23:56:41.232Z,9.85
2022-09-25T23:59:12.299Z,9.90
